Time;durP1;ratioP1;P1;durP2;ratioP2;P2;SDS_P1;SDS_P2;PMS_P1;PMS_P2;Temp;Humidity;BMP_temperature;BMP_pressure;BME280_temperature;BME280_humidity;BME280_pressure;Samples;Min_cycle;Max_cycle;Signal;HPM_P1;HPM_P2
2022/10/09 00:00:23;;;;;;;3.78;1.95;;;10.00;99.90;;;;;;5085985;28;20111;-39
2022/10/09 00:02:49;;;;;;;9.00;2.25;;;10.00;99.90;;;;;;5083543;28;20499;-40
2022/10/09 00:05:14;;;;;;;4.25;2.72;;;10.00;99.90;;;;;;5082638;28;20106;-40
2022/10/09 00:07:40;;;;;;;7.32;2.40;;;10.00;99.90;;;;;;5083980;28;20626;-33
2022/10/09 00:10:06;;;;;;;7.68;2.13;;;10.10;99.90;;;;;;5081928;28;20034;-36
2022/10/09 00:12:31;;;;;;;4.20;2.05;;;10.10;99.90;;;;;;5069797;28;20488;-37
2022/10/09 00:14:57;;;;;;;7.35;1.83;;;10.20;99.90;;;;;;5076095;28;20028;-32
2022/10/09 00:17:22;;;;;;;6.60;2.15;;;10.20;99.90;;;;;;5078866;28;20115;-35
2022/10/09 00:19:48;;;;;;;7.93;2.03;;;10.30;99.90;;;;;;5078555;28;20054;-31
2022/10/09 00:22:14;;;;;;;5.32;2.58;;;10.30;99.90;;;;;;5087234;28;20020;-32
2022/10/09 00:24:41;;;;;;;7.47;2.50;;;10.30;99.90;;;;;;5081400;28;20477;-38
2022/10/09 00:27:06;;;;;;;7.20;3.17;;;10.30;99.90;;;;;;5084937;28;20077;-31
2022/10/09 00:29:32;;;;;;;9.80;2.20;;;10.30;99.90;;;;;;5088934;28;20273;-32
2022/10/09 00:31:58;;;;;;;7.60;2.40;;;10.30;99.90;;;;;;5084269;28;20016;-33
2022/10/09 00:34:23;;;;;;;7.22;1.65;;;10.30;99.90;;;;;;5089033;28;20028;-31
2022/10/09 00:36:49;;;;;;;3.65;2.00;;;10.30;99.90;;;;;;5080224;28;20082;-36
2022/10/09 00:39:14;;;;;;;4.22;1.88;;;10.30;99.90;;;;;;5088436;28;20020;-32
2022/10/09 00:41:40;;;;;;;5.35;2.35;;;10.40;99.90;;;;;;5093153;28;20030;-35
2022/10/09 00:44:42;;;;;;;8.90;2.20;;;10.40;99.90;;;;;;5096355;28;20465;-32
2022/10/09 00:47:19;;;;;;;5.72;1.85;;;10.40;99.90;;;;;;5075870;28;20493;-35
2022/10/09 00:49:47;;;;;;;3.88;2.08;;;10.40;99.90;;;;;;5082996;28;20099;-41
2022/10/09 00:52:13;;;;;;;9.52;2.42;;;10.40;99.90;;;;;;5090581;28;20098;-41
2022/10/09 00:54:40;;;;;;;2.78;2.00;;;10.40;99.90;;;;;;5076821;28;20028;-40
2022/10/09 00:57:07;;;;;;;9.25;2.92;;;10.40;99.90;;;;;;5080340;28;20469;-39
2022/10/09 00:59:32;;;;;;;6.53;2.20;;;10.40;99.90;;;;;;5084207;28;20055;-39
2022/10/09 01:01:58;;;;;;;10.27;2.55;;;10.40;99.90;;;;;;5082890;28;20057;-42
2022/10/09 01:04:24;;;;;;;3.00;1.70;;;10.50;99.90;;;;;;5087213;28;20107;-42
2022/10/09 01:06:58;;;;;;;6.28;1.90;;;10.50;99.90;;;;;;5088605;28;20024;-53
2022/10/09 01:09:40;;;;;;;13.32;2.65;;;10.50;99.90;;;;;;5067919;28;20400;-61
2022/10/09 01:12:44;;;;;;;8.35;2.00;;;10.60;99.90;;;;;;5082358;28;20484;-40
2022/10/09 01:15:26;;;;;;;5.10;1.80;;;10.60;99.90;;;;;;5085315;28;20097;-39
2022/10/09 01:18:21;;;;;;;1.88;1.60;;;10.60;99.90;;;;;;5084988;28;20495;-39
2022/10/09 01:21:04;;;;;;;5.72;1.75;;;10.70;99.90;;;;;;5080191;28;20024;-42
2022/10/09 01:24:00;;;;;;;7.15;1.80;;;10.70;99.90;;;;;;5092033;28;20032;-39
2022/10/09 01:26:33;;;;;;;4.35;1.67;;;10.60;99.90;;;;;;5090613;28;20472;-39
2022/10/09 01:29:04;;;;;;;4.60;1.65;;;10.60;99.90;;;;;;5081395;28;20028;-40
2022/10/09 01:31:32;;;;;;;4.70;1.95;;;10.70;99.90;;;;;;5094684;28;20383;-41
2022/10/09 01:34:00;;;;;;;6.65;1.90;;;10.60;99.90;;;;;;5082435;28;20504;-32
2022/10/09 01:36:29;;;;;;;3.45;1.88;;;10.60;99.90;;;;;;5092157;28;20089;-32
2022/10/09 01:38:58;;;;;;;8.68;2.20;;;10.60;99.90;;;;;;5089305;28;20016;-38
2022/10/09 01:41:25;;;;;;;4.15;1.50;;;10.60;99.90;;;;;;5076233;28;20021;-33
2022/10/09 01:43:50;;;;;;;5.00;1.65;;;10.60;99.90;;;;;;5093700;28;20027;-35
2022/10/09 01:46:31;;;;;;;3.30;1.60;;;10.50;99.90;;;;;;5089455;28;20028;-36
2022/10/09 01:49:20;;;;;;;3.63;1.55;;;10.50;99.90;;;;;;5084624;28;20035;-31
2022/10/09 01:51:58;;;;;;;8.20;1.75;;;10.50;99.90;;;;;;5090188;28;20119;-36
2022/10/09 01:54:31;;;;;;;;;;;10.50;99.90;;;;;;5085806;28;20035;-31
2022/10/09 01:57:01;;;;;;;5.75;1.90;;;10.40;99.90;;;;;;5087455;28;19911;-38
2022/10/09 01:59:29;;;;;;;7.60;2.33;;;10.40;99.90;;;;;;5092162;28;20036;-34
2022/10/09 02:01:58;;;;;;;3.40;2.28;;;10.30;99.90;;;;;;5093269;28;20024;-41
2022/10/09 02:04:25;;;;;;;4.43;1.75;;;10.30;99.90;;;;;;5065431;28;20028;-39
2022/10/09 02:06:51;;;;;;;12.38;2.20;;;10.30;99.90;;;;;;5083549;28;20028;-43
2022/10/09 02:09:17;;;;;;;6.57;2.22;;;10.20;99.90;;;;;;5081124;28;20036;-41
2022/10/09 02:11:47;;;;;;;6.20;1.98;;;10.10;99.90;;;;;;5074372;28;20031;-44
2022/10/09 02:14:13;;;;;;;3.78;1.75;;;10.00;99.90;;;;;;5074063;28;20495;-40
2022/10/09 02:16:43;;;;;;;6.75;2.17;;;10.00;99.90;;;;;;5081502;28;20025;-40
2022/10/09 02:19:33;;;;;;;8.80;2.15;;;10.00;99.90;;;;;;5084209;28;20032;-43
2022/10/09 02:22:12;;;;;;;5.10;2.25;;;9.90;99.90;;;;;;5093335;28;20095;-40
2022/10/09 02:24:39;;;;;;;3.33;2.20;;;9.90;99.90;;;;;;5092014;28;20480;-41
2022/10/09 02:27:05;;;;;;;8.02;1.77;;;9.90;99.90;;;;;;5074430;28;20028;-31
2022/10/09 02:29:32;;;;;;;6.60;2.65;;;9.90;99.90;;;;;;5083546;28;20039;-38
2022/10/09 02:31:57;;;;;;;2.58;1.90;;;9.90;99.90;;;;;;5091048;28;20039;-35
2022/10/09 02:34:24;;;;;;;5.32;2.33;;;9.80;99.90;;;;;;5074764;28;20044;-37
2022/10/09 02:36:49;;;;;;;8.57;2.30;;;9.80;99.90;;;;;;5084850;28;20484;-34
2022/10/09 02:39:15;;;;;;;5.53;1.77;;;9.70;99.90;;;;;;5089049;28;20089;-40
2022/10/09 02:41:41;;;;;;;4.38;2.65;;;9.70;99.90;;;;;;5092078;28;20036;-41
2022/10/09 02:44:07;;;;;;;4.93;2.30;;;9.70;99.90;;;;;;5087281;28;20077;-40
2022/10/09 02:46:33;;;;;;;5.00;2.35;;;9.70;99.90;;;;;;5079362;28;20103;-38
2022/10/09 02:48:59;;;;;;;5.78;2.17;;;9.60;99.90;;;;;;5092248;28;20020;-39
2022/10/09 02:51:25;;;;;;;5.35;2.35;;;9.60;99.90;;;;;;5080239;28;20093;-37
2022/10/09 02:53:52;;;;;;;4.25;2.47;;;9.60;99.90;;;;;;5082527;28;20391;-37
2022/10/09 02:56:19;;;;;;;6.90;2.20;;;9.60;99.90;;;;;;5091780;28;20430;-38
2022/10/09 02:58:44;;;;;;;6.75;2.28;;;9.50;99.90;;;;;;5084134;28;20020;-35
2022/10/09 03:01:10;;;;;;;4.30;2.78;;;9.40;99.90;;;;;;5090376;28;20077;-36
2022/10/09 03:03:36;;;;;;;7.38;2.88;;;9.40;99.90;;;;;;5079827;28;20533;-39
2022/10/09 03:06:10;;;;;;;5.43;2.63;;;9.40;99.90;;;;;;5092159;28;20024;-35
2022/10/09 03:08:38;;;;;;;5.63;2.80;;;9.40;99.90;;;;;;5087959;28;20020;-32
2022/10/09 03:11:03;;;;;;;3.95;2.60;;;9.30;99.90;;;;;;5092126;28;20020;-31
2022/10/09 03:13:30;;;;;;;7.50;3.10;;;9.20;99.90;;;;;;5092773;28;20168;-37
2022/10/09 03:16:05;;;;;;;5.47;2.75;;;9.20;99.90;;;;;;5088452;28;20024;-32
2022/10/09 03:18:30;;;;;;;5.15;2.70;;;9.20;99.90;;;;;;5085464;28;20024;-41
2022/10/09 03:20:57;;;;;;;4.72;2.50;;;9.20;99.90;;;;;;5091235;28;20498;-38
2022/10/09 03:23:23;;;;;;;6.07;2.97;;;9.10;99.90;;;;;;5059181;28;20036;-41
2022/10/09 03:25:59;;;;;;;7.35;2.78;;;9.10;99.90;;;;;;5089889;28;20379;-40
2022/10/09 03:28:25;;;;;;;6.80;2.83;;;9.10;99.90;;;;;;5092423;28;20123;-40
2022/10/09 03:30:52;;;;;;;4.57;2.70;;;9.10;99.90;;;;;;5085213;28;20512;-44
2022/10/09 03:33:18;;;;;;;4.95;2.75;;;9.10;99.90;;;;;;5071889;28;20123;-42
2022/10/09 03:35:48;;;;;;;4.75;2.80;;;9.10;99.90;;;;;;5073878;28;20157;-40
2022/10/09 03:38:14;;;;;;;4.28;2.85;;;9.10;99.90;;;;;;5083173;28;20070;-33
2022/10/09 03:40:40;;;;;;;4.75;2.60;;;9.10;99.90;;;;;;5080140;28;20420;-36
2022/10/09 03:43:06;;;;;;;7.88;3.42;;;9.10;99.90;;;;;;5075373;28;20153;-33
2022/10/09 03:45:32;;;;;;;5.90;3.50;;;9.20;99.90;;;;;;5080003;28;20028;-32
2022/10/09 03:47:57;;;;;;;5.82;2.80;;;9.10;99.90;;;;;;5080224;28;20031;-36
2022/10/09 03:50:23;;;;;;;5.30;2.80;;;9.10;99.90;;;;;;5081587;28;20477;-34
2022/10/09 03:52:49;;;;;;;5.22;2.88;;;9.20;99.90;;;;;;5079144;28;20025;-42
2022/10/09 03:55:15;;;;;;;12.48;3.13;;;9.10;99.90;;;;;;5085015;28;20420;-41
2022/10/09 03:57:40;;;;;;;8.82;3.53;;;9.00;99.90;;;;;;5092304;28;20020;-40
2022/10/09 04:00:07;;;;;;;4.45;2.80;;;9.00;99.90;;;;;;5073890;28;20032;-42
2022/10/09 04:02:34;;;;;;;5.95;2.85;;;9.00;99.90;;;;;;5082506;28;20559;-42
2022/10/09 04:04:59;;;;;;;5.95;2.75;;;8.90;99.90;;;;;;5079783;28;20087;-41
2022/10/09 04:07:25;;;;;;;8.10;3.22;;;8.90;99.90;;;;;;5084931;28;20437;-41
2022/10/09 04:09:51;;;;;;;6.78;2.97;;;8.80;99.90;;;;;;5079432;28;20066;-41
2022/10/09 04:12:16;;;;;;;7.57;3.30;;;8.80;99.90;;;;;;5079473;28;20028;-48
2022/10/09 04:14:42;;;;;;;6.57;3.15;;;8.80;99.90;;;;;;5097040;28;20047;-42
2022/10/09 04:17:08;;;;;;;4.18;2.92;;;8.80;99.90;;;;;;5063911;28;20044;-43
2022/10/09 04:19:34;;;;;;;7.32;3.58;;;8.70;99.90;;;;;;5084695;28;20086;-35
2022/10/09 04:22:00;;;;;;;4.78;2.92;;;8.70;99.90;;;;;;5095294;28;20016;-32
2022/10/09 04:24:26;;;;;;;4.30;2.60;;;8.80;99.90;;;;;;5093824;28;20031;-33
2022/10/09 04:26:51;;;;;;;6.72;2.90;;;8.70;99.90;;;;;;5093561;28;20165;-32
2022/10/09 04:29:17;;;;;;;6.18;2.90;;;8.80;99.90;;;;;;5095859;28;20028;-32
2022/10/09 04:31:43;;;;;;;9.02;2.88;;;8.70;99.90;;;;;;5075448;28;20024;-35
2022/10/09 04:34:08;;;;;;;7.32;2.72;;;8.70;99.90;;;;;;5094671;28;20408;-34
2022/10/09 04:36:34;;;;;;;5.78;3.00;;;8.70;99.90;;;;;;5096669;28;20029;-33
2022/10/09 04:38:59;;;;;;;11.75;4.38;;;8.80;99.90;;;;;;5084178;28;20425;-32
2022/10/09 04:41:25;;;;;;;3.65;2.80;;;8.80;99.90;;;;;;5081310;28;20158;-41
2022/10/09 04:43:55;;;;;;;12.48;3.72;;;8.70;99.90;;;;;;5081577;28;20082;-49
2022/10/09 04:46:21;;;;;;;4.97;3.10;;;8.70;99.90;;;;;;5076147;28;20074;-43
2022/10/09 04:48:46;;;;;;;3.92;2.80;;;8.70;99.90;;;;;;5076170;28;20032;-40
2022/10/09 04:51:14;;;;;;;12.05;3.03;;;8.70;99.90;;;;;;5076034;28;20468;-44
2022/10/09 04:53:40;;;;;;;6.32;3.03;;;8.70;99.90;;;;;;5082498;28;20495;-44
2022/10/09 04:56:08;;;;;;;9.15;2.92;;;8.70;99.90;;;;;;5080122;28;20063;-41
2022/10/09 04:58:39;;;;;;;7.60;4.55;;;8.60;99.90;;;;;;5093482;28;20028;-43
2022/10/09 05:01:25;;;;;;;6.72;2.80;;;8.60;99.90;;;;;;5091184;28;20074;-43
2022/10/09 05:03:52;;;;;;;5.72;3.25;;;8.60;99.90;;;;;;5083398;28;20028;-42
2022/10/09 05:06:19;;;;;;;5.75;3.42;;;8.60;99.90;;;;;;5096038;28;20023;-41
2022/10/09 05:08:45;;;;;;;7.68;3.28;;;8.60;99.90;;;;;;5094136;28;20518;-41
2022/10/09 05:11:14;;;;;;;3.00;2.38;;;8.60;99.90;;;;;;5094816;28;20518;-41
2022/10/09 05:13:44;;;;;;;7.00;3.08;;;8.50;99.90;;;;;;5075353;28;20103;-42
2022/10/09 05:16:12;;;;;;;4.97;2.95;;;8.50;99.90;;;;;;5088978;28;20492;-45
2022/10/09 05:18:47;;;;;;;6.25;3.00;;;8.50;99.90;;;;;;5082002;28;20024;-40
2022/10/09 05:21:13;;;;;;;6.88;3.08;;;8.50;99.90;;;;;;5068849;28;20020;-41
2022/10/09 05:23:39;;;;;;;8.73;2.83;;;8.40;99.90;;;;;;5090369;28;20017;-44
2022/10/09 05:26:07;;;;;;;4.97;2.70;;;8.40;99.90;;;;;;5087592;28;20377;-41
2022/10/09 05:28:34;;;;;;;8.15;3.45;;;8.40;99.90;;;;;;5093997;28;20391;-40
2022/10/09 05:31:04;;;;;;;3.35;2.60;;;8.40;99.90;;;;;;5094653;28;20472;-41
2022/10/09 05:33:30;;;;;;;7.10;3.30;;;8.40;99.90;;;;;;5085418;28;20488;-41
2022/10/09 05:35:59;;;;;;;4.40;2.92;;;8.30;99.90;;;;;;5078011;28;20063;-40
2022/10/09 05:38:25;;;;;;;;;;;8.30;99.90;;;;;;5094208;28;20388;-40
2022/10/09 05:40:53;;;;;;;8.15;2.75;;;8.30;99.90;;;;;;5090580;28;20427;-42
2022/10/09 05:43:21;;;;;;;7.45;3.22;;;8.30;99.90;;;;;;5093606;28;20107;-41
2022/10/09 05:45:47;;;;;;;6.82;2.65;;;8.30;99.90;;;;;;5081588;28;20024;-37
2022/10/09 05:48:12;;;;;;;8.07;3.97;;;8.20;99.90;;;;;;5083732;28;20036;-40
2022/10/09 05:50:38;;;;;;;4.07;2.65;;;8.20;99.90;;;;;;5087360;28;20032;-41
2022/10/09 05:53:04;;;;;;;6.30;3.15;;;8.20;99.90;;;;;;5087599;28;20476;-41
2022/10/09 05:55:29;;;;;;;3.63;3.05;;;8.20;99.90;;;;;;5089757;28;20024;-57
2022/10/09 05:57:55;;;;;;;5.82;3.65;;;8.30;99.90;;;;;;5087321;28;20502;-43
2022/10/09 06:00:20;;;;;;;3.67;2.85;;;8.20;99.90;;;;;;5089190;28;20078;-36
2022/10/09 06:02:46;;;;;;;4.88;3.33;;;8.20;99.90;;;;;;5088791;28;20025;-32
2022/10/09 06:05:30;;;;;;;9.10;2.85;;;8.20;99.90;;;;;;5088980;28;20028;-32
2022/10/09 06:07:56;;;;;;;7.72;3.65;;;8.20;99.90;;;;;;5089185;28;20027;-42
2022/10/09 06:10:22;;;;;;;10.15;3.85;;;8.20;99.90;;;;;;5089993;28;20020;-36
2022/10/09 06:12:47;;;;;;;6.47;2.72;;;8.20;99.90;;;;;;5077613;28;20392;-32
2022/10/09 06:15:13;;;;;;;7.65;3.35;;;8.20;99.90;;;;;;5084201;28;20026;-35
2022/10/09 06:17:38;;;;;;;11.35;4.40;;;8.20;99.90;;;;;;5079157;28;20020;-34
2022/10/09 06:20:04;;;;;;;7.78;3.72;;;8.30;99.90;;;;;;5082386;28;20431;-37
2022/10/09 06:22:30;;;;;;;8.30;3.65;;;8.40;99.90;;;;;;5092871;28;20512;-36
2022/10/09 06:24:56;;;;;;;12.60;3.63;;;8.40;99.90;;;;;;5092271;28;20106;-38
2022/10/09 06:27:21;;;;;;;7.43;3.78;;;8.40;99.90;;;;;;5089808;28;20098;-36
2022/10/09 06:29:47;;;;;;;5.22;3.33;;;8.50;99.90;;;;;;5089885;28;20472;-33
2022/10/09 06:32:12;;;;;;;13.82;3.63;;;8.60;99.90;;;;;;5087706;28;20028;-36
2022/10/09 06:34:38;;;;;;;5.18;3.28;;;8.50;99.90;;;;;;5086495;28;20023;-39
2022/10/09 06:37:03;;;;;;;11.90;3.60;;;8.50;99.90;;;;;;5088781;28;20107;-35
2022/10/09 06:39:29;;;;;;;7.78;3.00;;;8.50;99.90;;;;;;5085834;28;20486;-45
2022/10/09 06:41:54;;;;;;;13.85;3.42;;;8.60;99.90;;;;;;5089653;28;20032;-40
2022/10/09 06:44:20;;;;;;;7.20;3.40;;;8.60;99.90;;;;;;5092162;28;20068;-34
2022/10/09 06:46:48;;;;;;;7.90;3.58;;;8.60;99.90;;;;;;5081116;28;20024;-34
2022/10/09 06:49:13;;;;;;;;;;;8.70;99.90;;;;;;5081627;28;20052;-35
2022/10/09 06:51:39;;;;;;;5.22;3.28;;;8.70;99.90;;;;;;5090465;28;19962;-34
2022/10/09 06:54:11;;;;;;;12.90;3.95;;;8.80;99.90;;;;;;5074562;28;20480;-37
2022/10/09 06:56:37;;;;;;;9.25;2.90;;;8.90;99.90;;;;;;5074990;28;20025;-37
2022/10/09 06:59:05;;;;;;;13.55;3.35;;;8.90;99.90;;;;;;5091372;28;20027;-32
2022/10/09 07:01:31;;;;;;;6.55;3.40;;;9.00;99.90;;;;;;5077245;28;20024;-48
2022/10/09 07:04:16;;;;;;;4.60;3.05;;;9.00;99.90;;;;;;5080495;28;20031;-34
2022/10/09 07:06:45;;;;;;;5.20;3.38;;;9.00;99.90;;;;;;5083390;28;20064;-35
2022/10/09 07:09:13;;;;;;;5.78;4.00;;;9.00;99.90;;;;;;5072746;28;20043;-50
2022/10/09 07:11:42;;;;;;;9.27;3.53;;;9.00;99.90;;;;;;5073111;28;20056;-38
2022/10/09 07:14:08;;;;;;;7.80;2.85;;;9.10;99.90;;;;;;5086858;28;20046;-35
2022/10/09 07:16:41;;;;;;;10.45;3.53;;;9.30;99.90;;;;;;5092136;28;20521;-41
2022/10/09 07:19:09;;;;;;;7.85;3.58;;;9.40;99.90;;;;;;5086707;28;20488;-41
2022/10/09 07:21:37;;;;;;;5.53;3.00;;;9.60;99.90;;;;;;5091871;28;20016;-34
2022/10/09 07:24:03;;;;;;;5.50;3.58;;;9.60;99.90;;;;;;5087562;28;20081;-43
2022/10/09 07:26:31;;;;;;;5.20;3.42;;;9.70;99.90;;;;;;5081113;28;20028;-39
2022/10/09 07:28:57;;;;;;;4.93;3.13;;;9.90;99.90;;;;;;5065897;28;20040;-41
2022/10/09 07:31:23;;;;;;;4.88;2.70;;;9.90;99.90;;;;;;5089908;28;20541;-40
2022/10/09 07:33:50;;;;;;;8.95;2.60;;;10.00;99.90;;;;;;5087249;28;20040;-42
2022/10/09 07:36:17;;;;;;;3.70;2.58;;;10.00;99.90;;;;;;5084399;28;20063;-40
2022/10/09 07:38:43;;;;;;;5.88;2.88;;;10.00;99.90;;;;;;5085053;28;20086;-47
2022/10/09 07:41:11;;;;;;;12.80;3.30;;;10.20;99.90;;;;;;5072624;28;20484;-50
2022/10/09 07:43:38;;;;;;;11.35;2.65;;;10.20;99.90;;;;;;5086541;28;20468;-45
2022/10/09 07:46:06;;;;;;;5.15;2.47;;;10.20;99.90;;;;;;5084967;28;20035;-43
2022/10/09 07:48:34;;;;;;;4.97;2.60;;;10.30;99.90;;;;;;5086410;28;20050;-41
2022/10/09 07:51:10;;;;;;;4.40;3.05;;;10.40;99.90;;;;;;5079776;28;20042;-41
2022/10/09 07:53:37;;;;;;;11.43;3.60;;;10.50;99.90;;;;;;5087837;28;20032;-41
2022/10/09 07:56:03;;;;;;;8.40;4.70;;;10.50;99.90;;;;;;5082939;28;20035;-46
2022/10/09 07:58:29;;;;;;;6.82;2.42;;;10.60;99.90;;;;;;5087224;28;20492;-37
2022/10/09 08:00:55;;;;;;;4.57;2.50;;;10.70;99.90;;;;;;5091479;28;20472;-39
2022/10/09 08:03:20;;;;;;;6.30;2.20;;;10.90;99.90;;;;;;5080223;28;20036;-39
2022/10/09 08:05:56;;;;;;;4.43;2.65;;;11.00;99.90;;;;;;5087282;28;20540;-40
2022/10/09 08:08:21;;;;;;;3.67;2.38;;;11.10;99.90;;;;;;5077437;28;20044;-42
2022/10/09 08:10:47;;;;;;;6.80;3.83;;;11.20;99.90;;;;;;5072533;28;20373;-41
2022/10/09 08:13:12;;;;;;;7.53;3.17;;;11.20;99.90;;;;;;5085733;28;20557;-39
2022/10/09 08:15:42;;;;;;;11.15;4.38;;;11.30;99.90;;;;;;5074250;28;20408;-39
2022/10/09 08:18:09;;;;;;;7.15;3.08;;;11.40;99.90;;;;;;5080088;28;20035;-41
2022/10/09 08:20:35;;;;;;;8.10;2.92;;;11.50;99.90;;;;;;5082639;28;20035;-37
2022/10/09 08:23:00;;;;;;;9.85;2.70;;;11.60;99.90;;;;;;5085231;28;20035;-41
2022/10/09 08:25:26;;;;;;;11.55;3.33;;;11.70;99.90;;;;;;5078813;28;20401;-59
2022/10/09 08:27:53;;;;;;;6.60;2.58;;;11.80;99.90;;;;;;5091729;28;20027;-42
2022/10/09 08:30:19;;;;;;;8.77;2.65;;;11.90;99.90;;;;;;5080113;28;20028;-41
2022/10/09 08:32:44;;;;;;;7.82;2.90;;;12.00;99.90;;;;;;5078203;28;20032;-58
2022/10/09 08:35:10;;;;;;;7.70;2.55;;;12.10;99.90;;;;;;5089177;28;20518;-40
2022/10/09 08:37:36;;;;;;;10.15;2.75;;;12.10;99.90;;;;;;5069116;28;20107;-43
2022/10/09 08:40:02;;;;;;;4.88;2.78;;;12.30;99.90;;;;;;5084067;28;20024;-40
2022/10/09 08:42:48;;;;;;;5.85;2.95;;;12.30;99.90;;;;;;5072917;28;20029;-42
2022/10/09 08:45:18;;;;;;;10.65;2.60;;;12.50;99.90;;;;;;5080041;28;20025;-40
2022/10/09 08:47:57;;;;;;;9.48;2.55;;;12.50;99.90;;;;;;5084783;28;20462;-40
2022/10/09 08:50:47;;;;;;;6.35;2.55;;;12.60;99.90;;;;;;5080901;28;20052;-41
2022/10/09 08:53:31;;;;;;;7.10;2.60;;;12.70;99.90;;;;;;5079522;28;20483;-41
2022/10/09 08:55:59;;;;;;;5.07;2.70;;;12.90;99.90;;;;;;5083021;28;20115;-56
2022/10/09 08:58:30;;;;;;;6.18;1.83;;;13.00;99.90;;;;;;5090641;28;20028;-43
2022/10/09 09:01:30;;;;;;;5.55;2.65;;;13.00;99.90;;;;;;5090973;28;20016;-41
2022/10/09 09:04:20;;;;;;;5.10;2.65;;;13.20;99.90;;;;;;5083205;28;20024;-40
2022/10/09 09:07:22;;;;;;;3.72;2.92;;;13.20;99.90;;;;;;5086565;28;20078;-42
2022/10/09 09:10:04;;;;;;;9.60;2.63;;;13.30;99.90;;;;;;5083505;28;20480;-43
2022/10/09 09:12:51;;;;;;;5.45;2.33;;;13.30;99.90;;;;;;5085390;28;20024;-36
2022/10/09 09:15:54;;;;;;;9.23;2.75;;;13.40;99.90;;;;;;5090065;28;20020;-40
2022/10/09 09:18:28;;;;;;;6.45;2.65;;;13.50;99.90;;;;;;5015598;28;20145;-42
2022/10/09 09:20:59;;;;;;;3.25;2.20;;;13.70;99.90;;;;;;5088502;28;20032;-42
2022/10/09 09:23:28;;;;;;;12.48;2.60;;;13.70;99.90;;;;;;5087612;28;20027;-41
2022/10/09 09:25:55;;;;;;;8.82;2.80;;;13.90;99.90;;;;;;5085685;28;20437;-43
2022/10/09 09:28:29;;;;;;;11.85;2.88;;;13.90;99.90;;;;;;5086351;28;20024;-42
2022/10/09 09:31:17;;;;;;;9.35;3.03;;;14.10;99.90;;;;;;5084787;28;20391;-40
2022/10/09 09:33:47;;;;;;;7.78;2.40;;;14.20;99.90;;;;;;5080866;28;20048;-44
2022/10/09 09:36:41;;;;;;;9.95;2.58;;;14.30;99.90;;;;;;5083874;28;20063;-40
2022/10/09 09:39:13;;;;;;;10.35;2.55;;;14.40;99.90;;;;;;5085146;28;20032;-41
2022/10/09 09:41:41;;;;;;;5.93;2.42;;;14.50;99.90;;;;;;5089522;28;20464;-38
2022/10/09 09:44:10;;;;;;;9.88;2.58;;;14.60;99.90;;;;;;5071439;28;20027;-37
2022/10/09 09:46:37;;;;;;;11.57;2.65;;;14.70;99.90;;;;;;5080833;28;20025;-43
2022/10/09 09:49:18;;;;;;;4.40;2.10;;;14.80;99.90;;;;;;5090489;28;20020;-43
2022/10/09 09:51:44;;;;;;;8.60;2.97;;;14.90;99.90;;;;;;5084788;28;20032;-41
2022/10/09 09:54:23;;;;;;;10.27;2.75;;;15.00;99.90;;;;;;5083380;28;20024;-41
2022/10/09 09:56:51;;;;;;;3.45;1.95;;;15.00;99.90;;;;;;5089762;28;20106;-40
2022/10/09 09:59:37;;;;;;;10.82;2.40;;;15.20;99.90;;;;;;5089269;28;20032;-42
2022/10/09 10:02:26;;;;;;;9.98;3.45;;;15.30;99.90;;;;;;5086156;28;20073;-40
2022/10/09 10:04:57;;;;;;;5.95;2.40;;;15.50;99.90;;;;;;5082396;28;20025;-40
2022/10/09 10:07:37;;;;;;;5.90;2.22;;;15.60;99.90;;;;;;5080028;28;20584;-48
2022/10/09 10:10:17;;;;;;;5.60;3.40;;;15.60;99.90;;;;;;5085735;28;20028;-40
2022/10/09 10:12:53;;;;;;;6.30;2.50;;;15.50;99.90;;;;;;5081112;28;20476;-37
2022/10/09 10:15:29;;;;;;;5.90;2.08;;;15.60;99.90;;;;;;5082253;28;20133;-40
2022/10/09 10:17:59;;;;;;;3.33;1.77;;;15.60;99.90;;;;;;5083522;28;20846;-40
2022/10/09 10:20:26;;;;;;;9.32;3.00;;;15.60;99.90;;;;;;5083971;28;20020;-41
2022/10/09 10:22:54;;;;;;;6.67;2.80;;;15.80;99.90;;;;;;5080445;28;20480;-39
2022/10/09 10:25:28;;;;;;;6.72;2.53;;;15.90;99.90;;;;;;5066351;28;20069;-40
2022/10/09 10:28:02;;;;;;;7.60;2.88;;;15.90;99.90;;;;;;5092649;28;20383;-40
2022/10/09 10:30:30;;;;;;;11.25;2.60;;;15.90;99.90;;;;;;5090723;28;20038;-39
2022/10/09 10:33:17;;;;;;;4.03;2.00;;;16.00;99.90;;;;;;5088469;28;20030;-40
2022/10/09 10:35:44;;;;;;;5.00;2.13;;;16.20;99.90;;;;;;5093459;28;20032;-40
2022/10/09 10:38:25;;;;;;;8.50;2.40;;;16.20;99.90;;;;;;5079563;28;20028;-40
2022/10/09 10:41:21;;;;;;;6.82;2.10;;;16.20;99.90;;;;;;5092114;28;20035;-41
2022/10/09 10:44:12;;;;;;;3.30;2.38;;;16.30;99.90;;;;;;5077310;28;20028;-45
2022/10/09 10:46:51;;;;;;;7.85;2.80;;;16.20;99.90;;;;;;5090737;28;20070;-40
2022/10/09 10:49:20;;;;;;;5.07;2.85;;;16.20;99.90;;;;;;5084993;28;20043;-38
2022/10/09 10:52:15;;;;;;;6.03;2.05;;;16.30;99.90;;;;;;5091770;28;20472;-40
2022/10/09 10:54:53;;;;;;;7.32;2.20;;;16.40;99.90;;;;;;5082815;28;20868;-41
2022/10/09 10:58:01;;;;;;;6.93;1.92;;;16.50;99.90;;;;;;5081652;28;20480;-45
2022/10/09 11:00:28;;;;;;;2.75;1.98;;;16.50;99.90;;;;;;5084413;28;20028;-40
2022/10/09 11:03:19;;;;;;;6.00;2.47;;;16.70;99.90;;;;;;5086608;28;20107;-41
2022/10/09 11:05:51;;;;;;;2.72;1.77;;;16.70;99.90;;;;;;5069934;28;20041;-40
2022/10/09 11:08:33;;;;;;;9.88;3.13;;;16.90;99.90;;;;;;5077244;28;20522;-41
2022/10/09 11:11:07;;;;;;;3.45;1.90;;;16.90;99.90;;;;;;5076653;28;20017;-41
2022/10/09 11:13:59;;;;;;;7.95;2.17;;;17.00;99.90;;;;;;5083098;28;20016;-33
2022/10/09 11:16:46;;;;;;;5.93;2.00;;;17.00;99.90;;;;;;5079481;28;20496;-42
2022/10/09 11:19:21;;;;;;;6.67;2.23;;;17.00;99.90;;;;;;5091862;28;20384;-41
2022/10/09 11:22:03;;;;;;;5.80;2.60;;;17.10;99.90;;;;;;5090623;28;20320;-42
2022/10/09 11:24:46;;;;;;;9.13;2.20;;;17.20;99.90;;;;;;5085471;28;20024;-42
2022/10/09 11:27:28;;;;;;;7.38;2.63;;;17.30;99.90;;;;;;5081060;28;20867;-42
2022/10/09 11:30:14;;;;;;;14.88;2.85;;;17.30;99.90;;;;;;5084426;28;20027;-40
2022/10/09 11:33:02;;;;;;;8.48;2.60;;;17.30;99.90;;;;;;5085478;28;20047;-43
2022/10/09 11:35:33;;;;;;;5.80;2.20;;;17.40;99.90;;;;;;5088792;28;20040;-40
2022/10/09 11:38:03;;;;;;;6.47;2.75;;;17.40;99.90;;;;;;5089046;28;20026;-42
2022/10/09 11:40:36;;;;;;;4.43;2.30;;;17.40;99.90;;;;;;5084159;28;20024;-45
2022/10/09 11:43:24;;;;;;;6.13;2.28;;;17.50;99.90;;;;;;5078954;28;20488;-41
2022/10/09 11:45:56;;;;;;;3.50;2.22;;;17.60;99.90;;;;;;5083010;28;20105;-51
2022/10/09 11:48:36;;;;;;;7.95;2.40;;;17.60;99.90;;;;;;5085300;28;20036;-43
2022/10/09 11:51:14;;;;;;;7.13;2.78;;;17.70;99.90;;;;;;5091591;28;20067;-42
2022/10/09 11:53:41;;;;;;;7.75;2.80;;;17.80;99.90;;;;;;5089631;28;20036;-41
2022/10/09 11:56:20;;;;;;;5.65;2.70;;;17.90;99.90;;;;;;5082331;28;20107;-47
2022/10/09 11:59:00;;;;;;;5.45;2.80;;;17.80;99.90;;;;;;5080114;28;20484;-40
2022/10/09 12:01:34;;;;;;;7.25;2.40;;;17.80;99.90;;;;;;5087836;28;20381;-40
2022/10/09 12:04:07;;;;;;;6.43;2.20;;;17.80;99.90;;;;;;5083652;28;20024;-39
2022/10/09 12:06:52;;;;;;;3.67;2.30;;;17.90;99.90;;;;;;5079549;28;20024;-41
2022/10/09 12:09:36;;;;;;;3.55;1.98;;;18.10;99.90;;;;;;5083026;28;20028;-35
2022/10/09 12:12:17;;;;;;;2.85;1.88;;;18.20;99.90;;;;;;5075888;28;20032;-42
2022/10/09 12:14:46;;;;;;;7.75;2.85;;;18.30;99.90;;;;;;5077812;28;20476;-41
2022/10/09 12:17:29;;;;;;;3.55;2.20;;;18.30;99.90;;;;;;5078999;28;20033;-36
2022/10/09 12:20:04;;;;;;;6.80;1.83;;;18.40;99.90;;;;;;5065944;28;20013;-40
2022/10/09 12:22:36;;;;;;;7.80;1.83;;;18.40;99.50;;;;;;5087178;28;20027;-47
2022/10/09 12:25:15;;;;;;;9.00;2.03;;;18.50;99.90;;;;;;5087096;28;20523;-41
2022/10/09 12:27:42;;;;;;;9.23;2.20;;;18.50;98.90;;;;;;5084558;28;20507;-36
2022/10/09 12:30:13;;;;;;;5.15;2.28;;;18.50;99.20;;;;;;5064316;28;20078;-41
2022/10/09 12:32:48;;;;;;;3.70;2.05;;;18.40;99.10;;;;;;5087359;28;20024;-42
2022/10/09 12:35:45;;;;;;;2.58;1.80;;;18.40;98.90;;;;;;5081859;28;20042;-35
2022/10/09 12:38:30;;;;;;;4.63;2.10;;;18.30;99.30;;;;;;5090148;28;20040;-32
2022/10/09 12:41:01;;;;;;;5.00;1.60;;;18.40;98.90;;;;;;5078544;28;20461;-32
2022/10/09 12:43:28;;;;;;;3.85;1.77;;;18.40;99.00;;;;;;5091310;28;20503;-32
2022/10/09 12:45:54;;;;;;;5.97;1.60;;;18.40;99.10;;;;;;5093784;28;20051;-33
2022/10/09 12:48:24;;;;;;;3.42;1.58;;;18.40;99.10;;;;;;5076927;28;20033;-36
2022/10/09 12:50:50;;;;;;;3.47;1.85;;;18.50;99.20;;;;;;5076319;28;20029;-34
2022/10/09 12:53:25;;;;;;;7.00;1.70;;;18.60;99.40;;;;;;5080271;28;20032;-37
2022/10/09 12:55:54;;;;;;;2.42;1.52;;;18.70;98.90;;;;;;5084853;28;20024;-31
2022/10/09 12:58:27;;;;;;;3.13;1.48;;;18.60;98.90;;;;;;5085382;28;20510;-34
2022/10/09 13:00:58;;;;;;;3.88;1.85;;;18.70;99.20;;;;;;5087326;28;20426;-39
2022/10/09 13:03:32;;;;;;;5.25;1.42;;;18.80;98.70;;;;;;5081570;28;20060;-36
2022/10/09 13:05:58;;;;;;;4.07;1.80;;;18.90;98.70;;;;;;5088092;28;20468;-43
2022/10/09 13:08:27;;;;;;;10.63;1.77;;;19.00;98.00;;;;;;5094399;28;20044;-34
2022/10/09 13:10:53;;;;;;;11.25;1.60;;;18.90;98.40;;;;;;5091947;28;20020;-41